createdAt,value
2018-07-06T00:05:19.825Z,17.10
2018-07-06T00:10:40.410Z,13.47
2018-07-06T00:16:00.859Z,14.37
2018-07-06T00:21:21.232Z,13.60
2018-07-06T00:26:41.615Z,13.40
2018-07-06T00:32:01.869Z,14.77
2018-07-06T00:37:22.142Z,15.87
2018-07-06T00:42:42.414Z,17.13
2018-07-06T00:48:02.676Z,16.40
2018-07-06T00:53:23.317Z,16.10
2018-07-06T00:58:43.861Z,16.50
2018-07-06T01:04:04.110Z,16.53
2018-07-06T01:09:24.460Z,15.80
2018-07-06T01:14:44.620Z,21.10
2018-07-06T01:20:05.250Z,23.43
2018-07-06T01:25:25.781Z,21.87
2018-07-06T01:30:46.384Z,22.03
2018-07-06T01:36:06.607Z,21.33
2018-07-06T01:41:26.765Z,23.07
2018-07-06T01:46:47.088Z,23.67
2018-07-06T01:52:07.626Z,23.37
2018-07-06T01:57:27.871Z,27.00
2018-07-06T02:02:48.012Z,26.03
2018-07-06T02:08:08.439Z,26.57
2018-07-06T02:13:28.536Z,27.83
2018-07-06T02:18:48.833Z,26.33
2018-07-06T02:24:09.488Z,27.40
2018-07-06T02:29:30.000Z,26.90
2018-07-06T02:34:50.507Z,27.60
2018-07-06T02:40:10.833Z,30.10
2018-07-06T02:45:31.111Z,29.30
2018-07-06T02:50:51.683Z,29.27
2018-07-06T02:56:12.044Z,27.77
2018-07-06T03:01:32.673Z,26.37
2018-07-06T03:06:53.280Z,27.33
2018-07-06T03:12:13.623Z,29.43
2018-07-06T03:17:34.018Z,29.40
2018-07-06T03:22:54.723Z,30.17
2018-07-06T03:28:15.387Z,25.67
2018-07-06T03:33:35.687Z,25.50
2018-07-06T03:38:56.248Z,27.70
2018-07-06T03:44:16.781Z,28.33
2018-07-06T03:49:37.000Z,27.93
2018-07-06T03:54:57.315Z,26.97
2018-07-06T04:00:17.740Z,27.20
2018-07-06T04:05:37.940Z,24.77
2018-07-06T04:10:58.427Z,26.30
2018-07-06T04:16:18.952Z,24.00
2018-07-06T04:21:39.176Z,25.40
2018-07-06T04:26:59.696Z,24.60
2018-07-06T04:32:20.084Z,23.77
2018-07-06T04:37:40.851Z,23.90
2018-07-06T04:43:01.223Z,22.37
2018-07-06T04:48:21.632Z,21.63
2018-07-06T04:53:41.830Z,20.00
2018-07-06T04:59:02.363Z,19.40
2018-07-06T05:04:22.979Z,16.57
2018-07-06T05:09:43.301Z,16.87
2018-07-06T05:15:03.584Z,14.87
2018-07-06T05:20:23.903Z,16.73
2018-07-06T05:25:44.163Z,15.47
2018-07-06T05:31:04.540Z,16.33
2018-07-06T05:36:19.079Z,13.80
2018-07-06T05:41:39.399Z,14.20
2018-07-06T05:46:59.920Z,12.73
2018-07-06T05:52:20.332Z,11.90
2018-07-06T05:57:40.732Z,12.70
2018-07-06T06:03:01.351Z,11.30
2018-07-06T06:08:02.792Z,10.03
2018-07-06T06:13:06.047Z,10.53
2018-07-06T06:18:09.319Z,11.63
2018-07-06T06:23:12.320Z,10.20
2018-07-06T06:28:15.604Z,10.17
2018-07-06T06:33:18.749Z,11.50
2018-07-06T06:38:21.931Z,10.50
2018-07-06T06:43:25.177Z,9.70
2018-07-06T06:48:28.338Z,9.30
2018-07-06T06:53:31.431Z,8.83
2018-07-06T06:58:34.409Z,9.20
2018-07-06T07:03:37.708Z,8.73
2018-07-06T07:08:40.792Z,7.13
2018-07-06T07:13:43.892Z,6.17
2018-07-06T07:18:47.336Z,6.30
2018-07-06T07:23:50.657Z,4.90
2018-07-06T07:28:53.724Z,5.10
2018-07-06T07:33:56.917Z,4.40
2018-07-06T07:39:00.187Z,5.00
2018-07-06T07:44:03.481Z,5.30
2018-07-06T07:49:06.576Z,3.60
2018-07-06T07:54:23.388Z,3.93
2018-07-06T07:59:28.256Z,3.50
2018-07-06T08:04:31.795Z,3.90
2018-07-06T08:09:35.924Z,4.20
2018-07-06T08:14:39.055Z,4.30
2018-07-06T08:19:42.352Z,3.60
2018-07-06T08:24:45.644Z,3.80
2018-07-06T08:29:48.959Z,3.60
2018-07-06T08:35:09.077Z,3.60
2018-07-06T08:40:12.282Z,3.57
2018-07-06T08:45:15.469Z,3.30
2018-07-06T08:50:18.605Z,3.50
2018-07-06T08:55:21.711Z,3.90
2018-07-06T09:00:24.763Z,4.47
2018-07-06T09:05:28.007Z,3.37
2018-07-06T09:10:31.304Z,3.70
2018-07-06T09:15:34.407Z,3.63
2018-07-06T09:20:37.445Z,3.03
2018-07-06T09:25:40.748Z,3.60
2018-07-06T09:30:43.670Z,3.17
2018-07-06T09:35:46.683Z,2.83
2018-07-06T09:40:49.813Z,2.80
2018-07-06T09:45:53.185Z,3.00
2018-07-06T09:50:56.427Z,3.00
2018-07-06T09:55:59.594Z,3.33
2018-07-06T10:01:02.883Z,3.03
2018-07-06T10:06:05.917Z,3.00
2018-07-06T10:11:09.090Z,3.60
2018-07-06T10:16:12.675Z,3.23
2018-07-06T10:21:15.752Z,3.70
2018-07-06T10:26:18.744Z,4.10
2018-07-06T10:31:38.272Z,3.20
2018-07-06T10:36:41.422Z,4.30
2018-07-06T10:41:44.628Z,3.90
2018-07-06T10:46:47.889Z,3.90
2018-07-06T10:51:51.165Z,4.00
2018-07-06T10:56:55.018Z,3.73
2018-07-06T11:01:58.359Z,4.20
2018-07-06T11:07:01.449Z,3.80
2018-07-06T11:12:04.819Z,3.57
2018-07-06T11:17:07.814Z,3.20
2018-07-06T11:22:11.135Z,3.80
2018-07-06T11:27:14.444Z,3.10
2018-07-06T11:32:17.632Z,4.60
2018-07-06T11:37:20.703Z,4.13
2018-07-06T11:42:23.958Z,4.00
2018-07-06T11:47:27.018Z,5.20
2018-07-06T11:52:29.954Z,5.30
2018-07-06T11:57:33.176Z,6.10
2018-07-06T12:02:36.359Z,5.13
2018-07-06T12:07:39.672Z,4.70
2018-07-06T12:12:42.649Z,5.20
2018-07-06T12:17:45.622Z,4.03
2018-07-06T12:22:48.683Z,5.80
2018-07-06T12:27:51.904Z,4.83
2018-07-06T12:32:55.007Z,4.70
2018-07-06T12:37:58.102Z,5.30
2018-07-06T12:43:01.641Z,5.50
2018-07-06T12:48:05.586Z,5.43
2018-07-06T12:53:08.783Z,5.10
2018-07-06T12:58:12.064Z,6.17
2018-07-06T13:03:15.055Z,5.70
2018-07-06T13:08:18.238Z,6.43
2018-07-06T13:13:21.232Z,7.90
2018-07-06T13:18:24.584Z,6.97
2018-07-06T13:23:27.828Z,7.30
2018-07-06T13:28:30.848Z,5.83
2018-07-06T13:33:34.115Z,6.70
2018-07-06T13:38:37.425Z,7.90
2018-07-06T13:43:40.552Z,8.00
2018-07-06T13:48:43.756Z,5.47
2018-07-06T13:53:47.648Z,5.90
2018-07-06T13:58:50.906Z,7.00
2018-07-06T14:03:53.885Z,5.77
2018-07-06T14:08:57.261Z,5.20
2018-07-06T14:14:00.631Z,6.37
2018-07-06T14:19:03.824Z,5.07
2018-07-06T14:24:06.913Z,5.87
2018-07-06T14:29:09.890Z,6.00
2018-07-06T14:34:12.938Z,5.47
2018-07-06T14:39:15.943Z,5.50
2018-07-06T14:44:18.891Z,5.77
2018-07-06T14:49:21.916Z,4.60
2018-07-06T14:54:25.984Z,5.53
2018-07-06T14:59:28.987Z,4.80
2018-07-06T15:04:31.989Z,5.40
2018-07-06T15:09:35.014Z,5.57
2018-07-06T15:14:38.032Z,5.40
2018-07-06T15:19:41.149Z,5.57
2018-07-06T15:24:45.750Z,5.60
2018-07-06T15:29:48.671Z,5.07
2018-07-06T15:34:51.570Z,4.50
2018-07-06T15:39:54.505Z,4.70
2018-07-06T15:44:57.459Z,4.63
2018-07-06T15:50:00.493Z,4.80
2018-07-06T15:55:03.471Z,4.80
2018-07-06T16:00:06.585Z,5.47
2018-07-06T16:05:09.529Z,5.50
2018-07-06T16:10:12.531Z,6.43
2018-07-06T16:15:15.605Z,5.57
2018-07-06T16:20:18.664Z,5.47
2018-07-06T16:25:21.938Z,5.70
2018-07-06T16:30:25.144Z,6.30
2018-07-06T16:35:28.155Z,6.80
2018-07-06T16:40:31.200Z,6.57
2018-07-06T16:45:34.290Z,6.30
2018-07-06T16:50:37.300Z,6.40
2018-07-06T16:55:40.338Z,6.30
2018-07-06T17:00:43.462Z,6.10
2018-07-06T17:05:46.541Z,5.63
2018-07-06T17:10:49.493Z,6.27
2018-07-06T17:15:52.600Z,6.13
2018-07-06T17:20:55.720Z,6.73
2018-07-06T17:25:58.801Z,6.30
2018-07-06T17:31:01.787Z,7.90
2018-07-06T17:36:04.859Z,8.20
2018-07-06T17:41:07.837Z,7.47
2018-07-06T17:46:10.774Z,8.50
2018-07-06T17:51:13.821Z,7.20
2018-07-06T17:56:16.793Z,9.00
2018-07-06T18:01:19.725Z,7.83
2018-07-06T18:06:22.668Z,8.30
2018-07-06T18:11:25.729Z,9.50
2018-07-06T18:16:28.704Z,8.27
2018-07-06T18:21:32.171Z,8.00
2018-07-06T18:26:35.085Z,8.03
2018-07-06T18:31:38.070Z,8.53
2018-07-06T18:36:41.003Z,10.20
2018-07-06T18:41:43.962Z,8.87
2018-07-06T18:46:47.248Z,8.83
2018-07-06T18:51:50.312Z,8.57
2018-07-06T18:56:53.371Z,8.70
2018-07-06T19:01:56.440Z,9.10
2018-07-06T19:06:59.525Z,9.10
2018-07-06T19:12:02.876Z,9.40
2018-07-06T19:17:06.304Z,10.60
2018-07-06T19:22:09.428Z,9.50
2018-07-06T19:27:12.497Z,9.97
2018-07-06T19:32:15.831Z,9.43
2018-07-06T19:37:18.995Z,10.70
2018-07-06T19:42:22.141Z,11.60
2018-07-06T19:47:25.308Z,11.43
2018-07-06T19:52:28.339Z,11.30
2018-07-06T19:57:31.694Z,10.60
2018-07-06T20:02:34.856Z,10.70
2018-07-06T20:07:37.962Z,11.33
2018-07-06T20:12:41.043Z,10.70
2018-07-06T20:17:44.219Z,10.47
2018-07-06T20:22:47.498Z,10.37
2018-07-06T20:27:50.649Z,10.13
2018-07-06T20:32:53.766Z,10.23
2018-07-06T20:37:56.954Z,9.97
2018-07-06T20:43:00.014Z,10.10
2018-07-06T20:48:03.096Z,10.10
2018-07-06T20:53:06.248Z,10.60
2018-07-06T20:58:09.493Z,10.60
2018-07-06T21:03:13.175Z,11.63
2018-07-06T21:08:16.365Z,10.23
2018-07-06T21:13:20.432Z,10.73
2018-07-06T21:18:24.112Z,11.27
2018-07-06T21:23:27.871Z,11.93
2018-07-06T21:28:30.900Z,12.53
2018-07-06T21:33:33.977Z,13.03
2018-07-06T21:38:37.131Z,12.80
2018-07-06T21:43:40.233Z,12.53
2018-07-06T21:48:43.304Z,11.70
2018-07-06T21:53:46.443Z,12.23
2018-07-06T21:58:49.956Z,12.50
2018-07-06T22:03:52.992Z,12.27
2018-07-06T22:08:55.992Z,12.30
2018-07-06T22:13:59.013Z,12.23
2018-07-06T22:19:02.084Z,12.07
2018-07-06T22:24:05.423Z,11.30
2018-07-06T22:29:08.547Z,12.37
2018-07-06T22:34:11.560Z,11.60
2018-07-06T22:39:14.620Z,11.43
2018-07-06T22:44:17.777Z,12.40
2018-07-06T22:49:21.042Z,11.67
2018-07-06T22:54:24.084Z,11.53
2018-07-06T22:59:27.174Z,12.00
2018-07-06T23:04:30.228Z,11.57
2018-07-06T23:09:33.282Z,11.30
2018-07-06T23:14:36.286Z,11.60
2018-07-06T23:19:39.279Z,12.83
2018-07-06T23:24:42.292Z,12.90
2018-07-06T23:29:45.293Z,12.80
2018-07-06T23:34:48.293Z,11.97
2018-07-06T23:39:51.325Z,13.00
2018-07-06T23:44:54.319Z,12.73
2018-07-06T23:49:57.336Z,13.60
2018-07-06T23:55:00.754Z,12.87
